createdAt,value
2024-01-05T00:05:20.764Z,99710.44
2024-01-05T00:10:42.700Z,99703.78
2024-01-05T00:16:04.934Z,99715.41
2024-01-05T00:21:28.774Z,99700.16
2024-01-05T00:26:50.927Z,99704.34
2024-01-05T00:32:14.889Z,99697.69
2024-01-05T00:37:38.084Z,99686.31
2024-01-05T00:42:59.921Z,99681.91
2024-01-05T00:48:21.923Z,99680.53
2024-01-05T00:53:43.843Z,99678.84
2024-01-05T00:59:07.223Z,99674.69
2024-01-05T01:04:29.306Z,99666.66
2024-01-05T01:09:51.292Z,99663.31
2024-01-05T01:15:13.272Z,99654.47
2024-01-05T01:20:35.225Z,99643.66
2024-01-05T01:25:57.041Z,99635.66
2024-01-05T01:31:19.046Z,99623.16
2024-01-05T01:36:41.378Z,99616.25
2024-01-05T01:42:04.574Z,99613.47
2024-01-05T01:47:27.609Z,99621.22
2024-01-05T01:52:50.265Z,99606.81
2024-01-05T01:58:14.149Z,99597.97
2024-01-05T02:03:36.442Z,99585.25
2024-01-05T02:08:59.361Z,99572.50
2024-01-05T02:14:21.520Z,99560.88
2024-01-05T02:19:43.646Z,99554.78
2024-01-05T02:25:06.425Z,99549.22
2024-01-05T02:30:28.388Z,99545.66
2024-01-05T02:35:51.817Z,99535.13
2024-01-05T02:41:13.984Z,99527.63
2024-01-05T02:46:36.790Z,99531.50
2024-01-05T02:51:58.806Z,99511.59
2024-01-05T02:57:20.900Z,99512.16
2024-01-05T03:02:42.840Z,99506.59
2024-01-05T03:08:05.259Z,99496.91
2024-01-05T03:13:27.130Z,99483.31
2024-01-05T03:18:49.177Z,99483.31
2024-01-05T03:24:12.136Z,99477.22
2024-01-05T03:29:34.195Z,99461.72
2024-01-05T03:34:56.097Z,99452.59
2024-01-05T03:40:17.976Z,99444.59
2024-01-05T03:45:39.932Z,99444.84
2024-01-05T03:51:02.106Z,99427.41
2024-01-05T03:56:24.188Z,99413.03
2024-01-05T04:01:47.614Z,99405.81
2024-01-05T04:07:09.590Z,99396.97
2024-01-05T04:12:31.690Z,99403.34
2024-01-05T04:17:53.697Z,99400.84
2024-01-05T04:23:15.728Z,99388.97
2024-01-05T04:28:37.658Z,99392.00
2024-01-05T04:33:59.926Z,99386.44
2024-01-05T04:39:21.992Z,99389.50
2024-01-05T04:44:43.852Z,99383.16
2024-01-05T04:50:06.381Z,99379.84
2024-01-05T04:55:28.405Z,99384.53
2024-01-05T05:00:50.371Z,99376.22
2024-01-05T05:06:12.752Z,99371.78
2024-01-05T05:11:34.725Z,99370.97
2024-01-05T05:16:56.580Z,99378.72
2024-01-05T05:22:18.403Z,99381.50
2024-01-05T05:27:40.296Z,99379.56
2024-01-05T05:33:02.410Z,99380.94
2024-01-05T05:38:24.506Z,99380.94
2024-01-05T05:43:47.377Z,99379.28
2024-01-05T05:49:09.667Z,99397.00
2024-01-05T05:54:31.654Z,99381.78
2024-01-05T05:59:53.753Z,99371.00
2024-01-05T06:05:15.753Z,99379.03
2024-01-05T06:10:37.655Z,99383.75
2024-01-05T06:15:59.536Z,99379.88
2024-01-05T06:21:21.391Z,99393.97
2024-01-05T06:26:43.296Z,99380.41
2024-01-05T06:32:05.803Z,99386.78
2024-01-05T06:37:27.744Z,99380.41
2024-01-05T06:42:49.822Z,99382.34
2024-01-05T06:48:12.026Z,99384.00
2024-01-05T06:53:34.073Z,99398.13
2024-01-05T06:58:57.029Z,99393.69
2024-01-05T07:04:18.916Z,99397.56
2024-01-05T07:09:40.976Z,99395.09
2024-01-05T07:15:03.249Z,99379.31
2024-01-05T07:20:25.235Z,99393.44
2024-01-05T07:25:47.258Z,99397.59
2024-01-05T07:31:11.545Z,99405.34
2024-01-05T07:36:33.648Z,99412.00
2024-01-05T07:41:55.915Z,99417.78
2024-01-05T07:47:18.238Z,99434.66
2024-01-05T07:52:40.232Z,99441.59
2024-01-05T07:58:02.181Z,99451.81
2024-01-05T08:03:24.099Z,99462.88
2024-01-05T08:08:47.207Z,99474.22
2024-01-05T08:14:09.102Z,99480.88
2024-01-05T08:19:31.230Z,99477.28
2024-01-05T08:24:53.732Z,99478.41
2024-01-05T08:30:15.702Z,99475.88
2024-01-05T08:35:37.776Z,99471.75
2024-01-05T08:40:59.658Z,99473.13
2024-01-05T08:46:21.596Z,99479.47
2024-01-05T08:51:44.949Z,99476.16
2024-01-05T08:57:08.542Z,99480.03
2024-01-05T09:02:30.559Z,99497.75
2024-01-05T09:07:52.528Z,99496.91
2024-01-05T09:13:14.446Z,99502.72
2024-01-05T09:18:37.124Z,99526.78
2024-01-05T09:23:59.191Z,99520.44
2024-01-05T09:29:21.163Z,99533.69
2024-01-05T09:34:44.541Z,99552.22
2024-01-05T09:40:06.942Z,99551.38
2024-01-05T09:45:29.250Z,99552.50
2024-01-05T09:50:56.505Z,99555.25
2024-01-05T09:56:19.056Z,99557.47
2024-01-05T10:01:43.455Z,99568.53
2024-01-05T10:07:05.714Z,99571.56
2024-01-05T10:12:27.793Z,99570.72
2024-01-05T10:17:50.715Z,99576.25
2024-01-05T10:23:14.923Z,99567.44
2024-01-05T10:28:39.323Z,99560.22
2024-01-05T10:34:02.173Z,99575.97
2024-01-05T10:39:24.258Z,99565.19
2024-01-05T10:44:47.203Z,99571.81
2024-01-05T10:50:10.275Z,99570.72
2024-01-05T10:55:33.804Z,99567.38
2024-01-05T11:00:59.276Z,99580.38
2024-01-05T11:06:21.696Z,99579.81
2024-01-05T11:11:50.580Z,99588.91
2024-01-05T11:17:32.652Z,99581.72
2024-01-05T11:22:56.219Z,99587.25
2024-01-05T11:28:38.322Z,99581.72
2024-01-05T11:34:00.560Z,99582.00
2024-01-05T11:39:47.651Z,99587.25
2024-01-05T11:45:13.005Z,99577.28
2024-01-05T11:50:36.608Z,99578.41
2024-01-05T11:56:04.989Z,99578.97
2024-01-05T12:01:27.688Z,99577.03
2024-01-05T12:06:54.031Z,99577.88
2024-01-05T12:12:19.487Z,99582.56
2024-01-05T12:17:42.863Z,99592.78
2024-01-05T12:23:05.388Z,99585.59
2024-01-05T12:28:31.460Z,99590.88
2024-01-05T12:33:54.160Z,99591.97
2024-01-05T12:39:16.719Z,99593.34
2024-01-05T12:44:38.735Z,99599.69
2024-01-05T12:50:00.840Z,99604.41
2024-01-05T12:55:30.319Z,99613.81
2024-01-05T13:00:53.942Z,99603.84
2024-01-05T13:06:16.758Z,99609.63
2024-01-05T13:11:38.801Z,99609.91
2024-01-05T13:17:02.538Z,99618.78
2024-01-05T13:22:24.469Z,99627.31
2024-01-05T13:27:47.563Z,99614.88
2024-01-05T13:33:09.550Z,99620.41
2024-01-05T13:38:31.453Z,99631.47
2024-01-05T13:43:53.454Z,99622.59
2024-01-05T13:49:15.466Z,99641.13
2024-01-05T13:54:37.446Z,99633.09
2024-01-05T13:59:59.436Z,99646.91
2024-01-05T14:05:21.332Z,99656.34
2024-01-05T14:10:43.217Z,99657.44
2024-01-05T14:16:09.911Z,99671.78
2024-01-05T14:21:31.913Z,99677.88
2024-01-05T14:26:53.963Z,99685.31
2024-01-05T14:32:16.498Z,99698.31
2024-01-05T14:37:39.709Z,99704.09
2024-01-05T14:43:01.604Z,99717.09
2024-01-05T14:48:25.161Z,99732.59
2024-01-05T14:53:47.133Z,99740.31
2024-01-05T14:59:09.184Z,99756.09
2024-01-05T15:04:32.622Z,99747.22
2024-01-05T15:09:55.108Z,99753.00
2024-01-05T15:15:17.045Z,99762.13
2024-01-05T15:20:38.951Z,99774.00
2024-01-05T15:26:02.059Z,99796.13
2024-01-05T15:31:24.070Z,99787.25
2024-01-05T15:36:54.763Z,99806.59
2024-01-05T15:42:16.681Z,99804.97
2024-01-05T15:47:38.656Z,99819.88
2024-01-05T15:53:00.473Z,99822.09
2024-01-05T15:58:22.327Z,99824.69
2024-01-05T16:03:44.271Z,99820.44
2024-01-05T16:09:06.813Z,99828.63
2024-01-05T16:14:28.731Z,99832.66
2024-01-05T16:19:50.837Z,99838.06
2024-01-05T16:25:12.691Z,99835.66
2024-01-05T16:30:35.458Z,99848.44
2024-01-05T16:35:58.177Z,99856.50
2024-01-05T16:41:25.751Z,99865.38
2024-01-05T16:46:48.216Z,99844.84
2024-01-05T16:52:10.208Z,99853.47
2024-01-05T16:57:32.052Z,99841.25
2024-01-05T17:02:54.418Z,99847.91
2024-01-05T17:08:16.409Z,99862.84
2024-01-05T17:13:38.514Z,99871.41
2024-01-05T17:19:01.797Z,99870.00
2024-01-05T17:24:23.951Z,99883.88
2024-01-05T17:29:47.167Z,99870.56
2024-01-05T17:35:09.747Z,99884.72
2024-01-05T17:40:31.629Z,99890.59
2024-01-05T17:45:53.671Z,99895.63
2024-01-05T17:51:16.125Z,99900.66
2024-01-05T17:56:38.051Z,99903.09
2024-01-05T18:02:00.065Z,99913.94
2024-01-05T18:07:22.088Z,99936.13
2024-01-05T18:12:44.681Z,99944.97
2024-01-05T18:18:08.745Z,99931.59
2024-01-05T18:23:30.740Z,99935.44
2024-01-05T18:28:52.726Z,99939.88
2024-01-05T18:34:14.911Z,99944.88
2024-01-05T18:39:39.507Z,99948.19
2024-01-05T18:45:01.505Z,99961.28
2024-01-05T18:50:23.351Z,99969.31
2024-01-05T18:55:45.287Z,99966.53
2024-01-05T19:01:07.516Z,99967.13
2024-01-05T19:06:29.455Z,99966.28
2024-01-05T19:11:52.877Z,99971.56
2024-01-05T19:17:14.848Z,99986.03
2024-01-05T19:22:42.096Z,99992.72
2024-01-05T19:28:04.231Z,100003.56
2024-01-05T19:33:26.427Z,100013.28
2024-01-05T19:38:48.526Z,100026.91
2024-01-05T19:44:11.100Z,100039.13
2024-01-05T19:49:33.057Z,100042.75
2024-01-05T19:54:55.717Z,100051.63
2024-01-05T20:00:18.262Z,100057.75
2024-01-05T20:05:40.592Z,100059.16
2024-01-05T20:11:02.580Z,100073.84
2024-01-05T20:16:24.823Z,100065.22
2024-01-05T20:21:47.410Z,100078.84
2024-01-05T20:27:10.581Z,100082.19
2024-01-05T20:32:32.451Z,100093.31
2024-01-05T20:37:54.363Z,100098.88
2024-01-05T20:43:16.310Z,100102.47
2024-01-05T20:48:38.692Z,100121.91
2024-01-05T20:54:02.658Z,100114.97
2024-01-05T20:59:24.524Z,100134.97
2024-01-05T21:04:49.377Z,100134.41
2024-01-05T21:10:11.530Z,100147.22
2024-01-05T21:15:33.416Z,100136.63
2024-01-05T21:20:56.089Z,100145.28
2024-01-05T21:26:18.943Z,100144.44
2024-01-05T21:31:45.861Z,100152.75
2024-01-05T21:37:08.538Z,100157.22
2024-01-05T21:42:30.422Z,100159.41
2024-01-05T21:47:52.295Z,100163.31
2024-01-05T21:53:17.257Z,100168.84
2024-01-05T21:58:39.239Z,100171.63
2024-01-05T22:04:01.347Z,100173.28
2024-01-05T22:09:23.639Z,100180.50
2024-01-05T22:14:45.560Z,100183.78
2024-01-05T22:20:07.819Z,100195.69
2024-01-05T22:25:30.115Z,100210.09
2024-01-05T22:30:51.986Z,100206.72
2024-01-05T22:36:15.561Z,100214.47
2024-01-05T22:41:37.454Z,100216.63
2024-01-05T22:47:06.069Z,100226.03
2024-01-05T22:52:27.943Z,100230.16
2024-01-05T22:57:50.712Z,100237.34
2024-01-05T23:03:12.659Z,100247.31
2024-01-05T23:08:34.662Z,100245.88
2024-01-05T23:13:56.500Z,100243.88
2024-01-05T23:19:18.408Z,100244.66
2024-01-05T23:24:40.470Z,100252.66
2024-01-05T23:30:02.461Z,100252.66
2024-01-05T23:35:24.515Z,100253.16
2024-01-05T23:40:46.469Z,100258.41
2024-01-05T23:46:08.978Z,100265.31
2024-01-05T23:51:30.846Z,100273.91
2024-01-05T23:56:52.738Z,100269.44
